sensor_id;sensor_type;location;lat;lon;timestamp;P1;durP1;ratioP1;P2;durP2;ratioP2
4565;SDS011;2295;51.050;14.608;2023-07-08T00:00:27;7.32;;;4.80;;
4565;SDS011;2295;51.050;14.608;2023-07-08T00:02:55;7.32;;;4.57;;
4565;SDS011;2295;51.050;14.608;2023-07-08T00:05:24;8.88;;;4.97;;
4565;SDS011;2295;51.050;14.608;2023-07-08T00:07:53;14.70;;;5.43;;
4565;SDS011;2295;51.050;14.608;2023-07-08T00:10:23;7.45;;;5.03;;
4565;SDS011;2295;51.050;14.608;2023-07-08T00:12:55;5.75;;;4.65;;
4565;SDS011;2295;51.050;14.608;2023-07-08T00:15:25;6.80;;;5.20;;
4565;SDS011;2295;51.050;14.608;2023-07-08T00:17:56;7.85;;;5.10;;
4565;SDS011;2295;51.050;14.608;2023-07-08T00:20:27;5.90;;;4.93;;
4565;SDS011;2295;51.050;14.608;2023-07-08T00:22:59;7.95;;;5.40;;
4565;SDS011;2295;51.050;14.608;2023-07-08T00:25:28;6.90;;;5.07;;
4565;SDS011;2295;51.050;14.608;2023-07-08T00:27:58;8.98;;;5.10;;
4565;SDS011;2295;51.050;14.608;2023-07-08T00:30:27;5.15;;;4.20;;
4565;SDS011;2295;51.050;14.608;2023-07-08T00:32:57;10.82;;;5.18;;
4565;SDS011;2295;51.050;14.608;2023-07-08T00:35:28;6.40;;;4.45;;
4565;SDS011;2295;51.050;14.608;2023-07-08T00:38:00;6.65;;;4.95;;
4565;SDS011;2295;51.050;14.608;2023-07-08T00:40:29;10.70;;;5.60;;
4565;SDS011;2295;51.050;14.608;2023-07-08T00:43:01;7.10;;;5.15;;
4565;SDS011;2295;51.050;14.608;2023-07-08T00:45:37;6.60;;;4.93;;
4565;SDS011;2295;51.050;14.608;2023-07-08T00:48:28;6.97;;;4.35;;
4565;SDS011;2295;51.050;14.608;2023-07-08T00:50:58;6.97;;;3.90;;
4565;SDS011;2295;51.050;14.608;2023-07-08T00:53:27;8.13;;;3.90;;
4565;SDS011;2295;51.050;14.608;2023-07-08T00:55:59;10.30;;;4.33;;
4565;SDS011;2295;51.050;14.608;2023-07-08T00:58:32;10.70;;;4.27;;
4565;SDS011;2295;51.050;14.608;2023-07-08T01:01:05;6.20;;;3.83;;
4565;SDS011;2295;51.050;14.608;2023-07-08T01:03:36;5.00;;;3.90;;
4565;SDS011;2295;51.050;14.608;2023-07-08T01:06:13;8.03;;;3.90;;
4565;SDS011;2295;51.050;14.608;2023-07-08T01:08:41;14.07;;;4.00;;
4565;SDS011;2295;51.050;14.608;2023-07-08T01:11:09;5.00;;;3.10;;
4565;SDS011;2295;51.050;14.608;2023-07-08T01:13:40;6.17;;;3.90;;
4565;SDS011;2295;51.050;14.608;2023-07-08T01:16:11;4.60;;;3.60;;
4565;SDS011;2295;51.050;14.608;2023-07-08T01:18:41;4.60;;;3.10;;
4565;SDS011;2295;51.050;14.608;2023-07-08T01:21:29;5.30;;;3.40;;
4565;SDS011;2295;51.050;14.608;2023-07-08T01:24:00;8.67;;;3.60;;
4565;SDS011;2295;51.050;14.608;2023-07-08T01:26:31;7.40;;;3.10;;
4565;SDS011;2295;51.050;14.608;2023-07-08T01:29:02;5.57;;;3.30;;
4565;SDS011;2295;51.050;14.608;2023-07-08T01:31:33;8.63;;;3.63;;
4565;SDS011;2295;51.050;14.608;2023-07-08T01:34:02;9.00;;;3.43;;
4565;SDS011;2295;51.050;14.608;2023-07-08T01:36:34;5.17;;;3.17;;
4565;SDS011;2295;51.050;14.608;2023-07-08T01:39:11;7.00;;;3.23;;
4565;SDS011;2295;51.050;14.608;2023-07-08T01:41:43;7.83;;;3.50;;
4565;SDS011;2295;51.050;14.608;2023-07-08T01:44:21;9.27;;;3.30;;
4565;SDS011;2295;51.050;14.608;2023-07-08T01:46:51;8.80;;;3.67;;
4565;SDS011;2295;51.050;14.608;2023-07-08T01:49:22;5.47;;;2.73;;
4565;SDS011;2295;51.050;14.608;2023-07-08T01:51:52;3.60;;;3.17;;
4565;SDS011;2295;51.050;14.608;2023-07-08T01:54:21;4.10;;;3.17;;
4565;SDS011;2295;51.050;14.608;2023-07-08T01:56:54;6.07;;;3.00;;
4565;SDS011;2295;51.050;14.608;2023-07-08T01:59:23;3.60;;;3.30;;
4565;SDS011;2295;51.050;14.608;2023-07-08T02:01:51;7.50;;;3.23;;
4565;SDS011;2295;51.050;14.608;2023-07-08T02:04:22;3.77;;;3.40;;
4565;SDS011;2295;51.050;14.608;2023-07-08T02:06:51;5.10;;;3.50;;
4565;SDS011;2295;51.050;14.608;2023-07-08T02:09:22;9.27;;;3.10;;
4565;SDS011;2295;51.050;14.608;2023-07-08T02:11:51;6.03;;;3.70;;
4565;SDS011;2295;51.050;14.608;2023-07-08T02:14:19;4.07;;;3.00;;
4565;SDS011;2295;51.050;14.608;2023-07-08T02:16:48;5.00;;;3.50;;
4565;SDS011;2295;51.050;14.608;2023-07-08T02:19:16;5.87;;;3.10;;
4565;SDS011;2295;51.050;14.608;2023-07-08T02:21:45;5.10;;;3.30;;
4565;SDS011;2295;51.050;14.608;2023-07-08T02:24:14;6.10;;;3.20;;
4565;SDS011;2295;51.050;14.608;2023-07-08T02:26:44;8.73;;;3.13;;
4565;SDS011;2295;51.050;14.608;2023-07-08T02:29:14;8.70;;;3.27;;
4565;SDS011;2295;51.050;14.608;2023-07-08T02:31:42;4.37;;;3.30;;
4565;SDS011;2295;51.050;14.608;2023-07-08T02:34:10;3.67;;;3.00;;
4565;SDS011;2295;51.050;14.608;2023-07-08T02:36:39;5.60;;;3.30;;
4565;SDS011;2295;51.050;14.608;2023-07-08T02:39:07;6.47;;;3.50;;
4565;SDS011;2295;51.050;14.608;2023-07-08T02:41:35;4.67;;;3.30;;
4565;SDS011;2295;51.050;14.608;2023-07-08T02:44:05;6.67;;;2.93;;
4565;SDS011;2295;51.050;14.608;2023-07-08T02:46:33;3.70;;;2.90;;
4565;SDS011;2295;51.050;14.608;2023-07-08T02:49:02;2.90;;;2.70;;
4565;SDS011;2295;51.050;14.608;2023-07-08T02:51:30;4.80;;;2.93;;
4565;SDS011;2295;51.050;14.608;2023-07-08T02:53:59;13.33;;;3.10;;
4565;SDS011;2295;51.050;14.608;2023-07-08T02:56:27;6.10;;;3.10;;
4565;SDS011;2295;51.050;14.608;2023-07-08T02:58:55;9.10;;;3.10;;
4565;SDS011;2295;51.050;14.608;2023-07-08T03:01:25;3.80;;;2.80;;
4565;SDS011;2295;51.050;14.608;2023-07-08T03:03:53;9.23;;;2.93;;
4565;SDS011;2295;51.050;14.608;2023-07-08T03:06:23;4.00;;;3.10;;
4565;SDS011;2295;51.050;14.608;2023-07-08T03:08:51;4.73;;;3.00;;
4565;SDS011;2295;51.050;14.608;2023-07-08T03:11:20;2.93;;;2.73;;
4565;SDS011;2295;51.050;14.608;2023-07-08T03:13:48;3.03;;;2.67;;
4565;SDS011;2295;51.050;14.608;2023-07-08T03:16:16;4.90;;;3.30;;
4565;SDS011;2295;51.050;14.608;2023-07-08T03:18:46;10.83;;;3.30;;
4565;SDS011;2295;51.050;14.608;2023-07-08T03:21:16;4.73;;;2.93;;
4565;SDS011;2295;51.050;14.608;2023-07-08T03:23:47;6.13;;;3.13;;
4565;SDS011;2295;51.050;14.608;2023-07-08T03:26:16;4.23;;;2.93;;
4565;SDS011;2295;51.050;14.608;2023-07-08T03:28:47;6.00;;;3.10;;
4565;SDS011;2295;51.050;14.608;2023-07-08T03:31:15;7.60;;;3.40;;
4565;SDS011;2295;51.050;14.608;2023-07-08T03:33:45;6.93;;;3.27;;
4565;SDS011;2295;51.050;14.608;2023-07-08T03:36:14;7.63;;;3.10;;
4565;SDS011;2295;51.050;14.608;2023-07-08T03:38:50;12.00;;;3.67;;
4565;SDS011;2295;51.050;14.608;2023-07-08T03:41:19;6.77;;;2.90;;
4565;SDS011;2295;51.050;14.608;2023-07-08T03:43:47;5.17;;;3.50;;
4565;SDS011;2295;51.050;14.608;2023-07-08T03:46:17;4.60;;;2.90;;
4565;SDS011;2295;51.050;14.608;2023-07-08T03:48:48;6.80;;;3.30;;
4565;SDS011;2295;51.050;14.608;2023-07-08T03:51:17;8.70;;;3.13;;
4565;SDS011;2295;51.050;14.608;2023-07-08T03:53:49;5.53;;;3.63;;
4565;SDS011;2295;51.050;14.608;2023-07-08T03:56:18;3.20;;;2.90;;
4565;SDS011;2295;51.050;14.608;2023-07-08T03:58:46;6.57;;;3.20;;
4565;SDS011;2295;51.050;14.608;2023-07-08T04:01:14;6.40;;;2.80;;
4565;SDS011;2295;51.050;14.608;2023-07-08T04:03:44;10.73;;;4.00;;
4565;SDS011;2295;51.050;14.608;2023-07-08T04:06:14;9.63;;;3.57;;
4565;SDS011;2295;51.050;14.608;2023-07-08T04:08:42;7.77;;;3.30;;
4565;SDS011;2295;51.050;14.608;2023-07-08T04:11:10;4.30;;;2.87;;
4565;SDS011;2295;51.050;14.608;2023-07-08T04:13:41;6.90;;;3.30;;
4565;SDS011;2295;51.050;14.608;2023-07-08T04:16:09;3.80;;;2.93;;
4565;SDS011;2295;51.050;14.608;2023-07-08T04:18:46;5.40;;;2.90;;
4565;SDS011;2295;51.050;14.608;2023-07-08T04:21:18;3.90;;;3.03;;
4565;SDS011;2295;51.050;14.608;2023-07-08T04:23:48;9.27;;;3.20;;
4565;SDS011;2295;51.050;14.608;2023-07-08T04:26:17;10.03;;;2.77;;
4565;SDS011;2295;51.050;14.608;2023-07-08T04:28:46;4.00;;;3.10;;
4565;SDS011;2295;51.050;14.608;2023-07-08T04:31:14;7.13;;;2.90;;
4565;SDS011;2295;51.050;14.608;2023-07-08T04:33:43;8.73;;;3.40;;
4565;SDS011;2295;51.050;14.608;2023-07-08T04:36:11;3.10;;;2.80;;
4565;SDS011;2295;51.050;14.608;2023-07-08T04:38:42;6.23;;;2.70;;
4565;SDS011;2295;51.050;14.608;2023-07-08T04:41:13;4.70;;;3.73;;
4565;SDS011;2295;51.050;14.608;2023-07-08T04:43:41;5.27;;;3.23;;
4565;SDS011;2295;51.050;14.608;2023-07-08T04:46:14;10.63;;;3.23;;
4565;SDS011;2295;51.050;14.608;2023-07-08T04:48:46;5.27;;;3.10;;
4565;SDS011;2295;51.050;14.608;2023-07-08T04:51:14;6.67;;;3.73;;
4565;SDS011;2295;51.050;14.608;2023-07-08T04:53:47;6.93;;;3.00;;
4565;SDS011;2295;51.050;14.608;2023-07-08T04:56:15;4.33;;;2.90;;
4565;SDS011;2295;51.050;14.608;2023-07-08T04:58:46;4.70;;;3.20;;
4565;SDS011;2295;51.050;14.608;2023-07-08T05:01:14;9.83;;;3.00;;
4565;SDS011;2295;51.050;14.608;2023-07-08T05:03:43;4.97;;;2.80;;
4565;SDS011;2295;51.050;14.608;2023-07-08T05:06:11;6.67;;;3.10;;
4565;SDS011;2295;51.050;14.608;2023-07-08T05:08:39;5.63;;;3.00;;
4565;SDS011;2295;51.050;14.608;2023-07-08T05:11:09;4.13;;;2.67;;
4565;SDS011;2295;51.050;14.608;2023-07-08T05:13:37;5.33;;;2.70;;
4565;SDS011;2295;51.050;14.608;2023-07-08T05:16:05;4.80;;;2.57;;
4565;SDS011;2295;51.050;14.608;2023-07-08T05:18:34;3.80;;;2.97;;
4565;SDS011;2295;51.050;14.608;2023-07-08T05:21:02;16.27;;;3.13;;
4565;SDS011;2295;51.050;14.608;2023-07-08T05:23:32;5.00;;;3.27;;
4565;SDS011;2295;51.050;14.608;2023-07-08T05:26:00;9.00;;;2.90;;
4565;SDS011;2295;51.050;14.608;2023-07-08T05:28:30;5.07;;;2.50;;
4565;SDS011;2295;51.050;14.608;2023-07-08T05:30:59;2.57;;;2.03;;
4565;SDS011;2295;51.050;14.608;2023-07-08T05:33:28;2.90;;;2.47;;
4565;SDS011;2295;51.050;14.608;2023-07-08T05:35:57;2.30;;;2.10;;
4565;SDS011;2295;51.050;14.608;2023-07-08T05:38:26;9.90;;;2.37;;
4565;SDS011;2295;51.050;14.608;2023-07-08T05:40:56;3.90;;;2.43;;
4565;SDS011;2295;51.050;14.608;2023-07-08T05:43:26;4.80;;;2.90;;
4565;SDS011;2295;51.050;14.608;2023-07-08T05:45:58;3.63;;;2.37;;
4565;SDS011;2295;51.050;14.608;2023-07-08T05:48:38;6.37;;;2.37;;
4565;SDS011;2295;51.050;14.608;2023-07-08T05:51:06;9.60;;;2.60;;
4565;SDS011;2295;51.050;14.608;2023-07-08T05:53:35;5.60;;;2.17;;
4565;SDS011;2295;51.050;14.608;2023-07-08T05:56:03;6.40;;;2.40;;
4565;SDS011;2295;51.050;14.608;2023-07-08T05:58:31;7.20;;;2.63;;
4565;SDS011;2295;51.050;14.608;2023-07-08T06:01:01;7.70;;;2.10;;
4565;SDS011;2295;51.050;14.608;2023-07-08T06:03:36;2.80;;;2.60;;
4565;SDS011;2295;51.050;14.608;2023-07-08T06:06:05;3.33;;;2.30;;
4565;SDS011;2295;51.050;14.608;2023-07-08T06:08:34;4.67;;;2.17;;
4565;SDS011;2295;51.050;14.608;2023-07-08T06:11:02;2.40;;;2.20;;
4565;SDS011;2295;51.050;14.608;2023-07-08T06:13:31;9.20;;;2.30;;
4565;SDS011;2295;51.050;14.608;2023-07-08T06:15:59;2.50;;;2.00;;
4565;SDS011;2295;51.050;14.608;2023-07-08T06:18:29;2.70;;;2.50;;
4565;SDS011;2295;51.050;14.608;2023-07-08T06:20:57;7.63;;;2.20;;
4565;SDS011;2295;51.050;14.608;2023-07-08T06:23:26;3.00;;;1.83;;
4565;SDS011;2295;51.050;14.608;2023-07-08T06:25:55;2.23;;;2.13;;
4565;SDS011;2295;51.050;14.608;2023-07-08T06:28:24;4.30;;;2.00;;
4565;SDS011;2295;51.050;14.608;2023-07-08T06:30:52;2.47;;;2.27;;
4565;SDS011;2295;51.050;14.608;2023-07-08T06:33:22;3.93;;;2.50;;
4565;SDS011;2295;51.050;14.608;2023-07-08T06:35:50;4.33;;;2.30;;
4565;SDS011;2295;51.050;14.608;2023-07-08T06:38:18;5.17;;;2.00;;
4565;SDS011;2295;51.050;14.608;2023-07-08T06:40:47;3.27;;;2.30;;
4565;SDS011;2295;51.050;14.608;2023-07-08T06:43:15;5.00;;;2.40;;
4565;SDS011;2295;51.050;14.608;2023-07-08T06:45:44;4.20;;;2.37;;
4565;SDS011;2295;51.050;14.608;2023-07-08T06:48:12;2.10;;;1.90;;
4565;SDS011;2295;51.050;14.608;2023-07-08T06:50:45;2.70;;;1.80;;
4565;SDS011;2295;51.050;14.608;2023-07-08T06:53:13;2.00;;;1.90;;
4565;SDS011;2295;51.050;14.608;2023-07-08T06:55:43;2.30;;;2.10;;
4565;SDS011;2295;51.050;14.608;2023-07-08T06:58:12;3.20;;;2.63;;
4565;SDS011;2295;51.050;14.608;2023-07-08T07:00:41;3.67;;;2.60;;
4565;SDS011;2295;51.050;14.608;2023-07-08T07:03:10;2.20;;;2.00;;
4565;SDS011;2295;51.050;14.608;2023-07-08T07:05:39;4.27;;;2.77;;
4565;SDS011;2295;51.050;14.608;2023-07-08T07:08:09;2.30;;;2.17;;
4565;SDS011;2295;51.050;14.608;2023-07-08T07:10:37;2.83;;;2.50;;
4565;SDS011;2295;51.050;14.608;2023-07-08T07:13:05;5.00;;;2.33;;
4565;SDS011;2295;51.050;14.608;2023-07-08T07:15:34;2.47;;;2.17;;
4565;SDS011;2295;51.050;14.608;2023-07-08T07:18:02;2.00;;;1.90;;
4565;SDS011;2295;51.050;14.608;2023-07-08T07:20:35;5.43;;;2.03;;
4565;SDS011;2295;51.050;14.608;2023-07-08T07:23:09;2.40;;;2.20;;
4565;SDS011;2295;51.050;14.608;2023-07-08T07:25:37;4.53;;;2.53;;
4565;SDS011;2295;51.050;14.608;2023-07-08T07:28:05;10.13;;;2.20;;
4565;SDS011;2295;51.050;14.608;2023-07-08T07:30:37;2.07;;;1.97;;
4565;SDS011;2295;51.050;14.608;2023-07-08T07:33:05;3.80;;;2.37;;
4565;SDS011;2295;51.050;14.608;2023-07-08T07:35:33;3.03;;;2.27;;
4565;SDS011;2295;51.050;14.608;2023-07-08T07:38:01;2.93;;;2.43;;
4565;SDS011;2295;51.050;14.608;2023-07-08T07:40:31;6.53;;;2.43;;
4565;SDS011;2295;51.050;14.608;2023-07-08T07:42:59;2.37;;;2.17;;
4565;SDS011;2295;51.050;14.608;2023-07-08T07:45:28;4.30;;;2.20;;
4565;SDS011;2295;51.050;14.608;2023-07-08T07:47:56;2.07;;;1.93;;
4565;SDS011;2295;51.050;14.608;2023-07-08T07:50:24;2.60;;;2.20;;
4565;SDS011;2295;51.050;14.608;2023-07-08T07:52:53;2.20;;;2.03;;
4565;SDS011;2295;51.050;14.608;2023-07-08T07:55:21;2.63;;;2.33;;
4565;SDS011;2295;51.050;14.608;2023-07-08T07:57:51;7.50;;;2.40;;
4565;SDS011;2295;51.050;14.608;2023-07-08T08:00:19;5.50;;;2.80;;
4565;SDS011;2295;51.050;14.608;2023-07-08T08:02:47;2.03;;;1.93;;
4565;SDS011;2295;51.050;14.608;2023-07-08T08:05:15;4.80;;;2.50;;
4565;SDS011;2295;51.050;14.608;2023-07-08T08:07:45;2.47;;;2.30;;
4565;SDS011;2295;51.050;14.608;2023-07-08T08:10:14;3.77;;;2.40;;
4565;SDS011;2295;51.050;14.608;2023-07-08T08:12:43;3.40;;;2.20;;
4565;SDS011;2295;51.050;14.608;2023-07-08T08:15:18;4.80;;;2.70;;
4565;SDS011;2295;51.050;14.608;2023-07-08T08:17:47;2.43;;;2.20;;
4565;SDS011;2295;51.050;14.608;2023-07-08T08:20:19;2.57;;;2.30;;
4565;SDS011;2295;51.050;14.608;2023-07-08T08:22:48;3.57;;;3.27;;
4565;SDS011;2295;51.050;14.608;2023-07-08T08:25:17;3.40;;;2.53;;
4565;SDS011;2295;51.050;14.608;2023-07-08T08:27:46;4.17;;;2.80;;
4565;SDS011;2295;51.050;14.608;2023-07-08T08:30:14;9.90;;;3.20;;
4565;SDS011;2295;51.050;14.608;2023-07-08T08:32:44;2.90;;;2.60;;
4565;SDS011;2295;51.050;14.608;2023-07-08T08:35:16;7.17;;;2.97;;
4565;SDS011;2295;51.050;14.608;2023-07-08T08:37:44;2.67;;;2.30;;
4565;SDS011;2295;51.050;14.608;2023-07-08T08:40:13;3.00;;;2.80;;
4565;SDS011;2295;51.050;14.608;2023-07-08T08:42:46;2.37;;;2.20;;
4565;SDS011;2295;51.050;14.608;2023-07-08T08:45:20;2.67;;;2.47;;
4565;SDS011;2295;51.050;14.608;2023-07-08T08:47:54;3.07;;;2.50;;
4565;SDS011;2295;51.050;14.608;2023-07-08T08:50:28;1.80;;;1.70;;
4565;SDS011;2295;51.050;14.608;2023-07-08T08:53:00;4.53;;;2.30;;
4565;SDS011;2295;51.050;14.608;2023-07-08T08:55:31;2.57;;;2.47;;
4565;SDS011;2295;51.050;14.608;2023-07-08T08:58:02;5.10;;;2.30;;
4565;SDS011;2295;51.050;14.608;2023-07-08T09:00:45;6.80;;;2.50;;
4565;SDS011;2295;51.050;14.608;2023-07-08T09:03:27;3.20;;;2.43;;
4565;SDS011;2295;51.050;14.608;2023-07-08T09:06:08;2.53;;;2.33;;
4565;SDS011;2295;51.050;14.608;2023-07-08T09:08:39;2.80;;;2.60;;
4565;SDS011;2295;51.050;14.608;2023-07-08T09:11:11;2.30;;;2.10;;
4565;SDS011;2295;51.050;14.608;2023-07-08T09:13:46;4.37;;;2.40;;
4565;SDS011;2295;51.050;14.608;2023-07-08T09:16:16;2.70;;;2.50;;
4565;SDS011;2295;51.050;14.608;2023-07-08T09:18:56;2.93;;;1.80;;
4565;SDS011;2295;51.050;14.608;2023-07-08T09:21:29;2.27;;;2.13;;
4565;SDS011;2295;51.050;14.608;2023-07-08T09:24:02;4.50;;;2.60;;
4565;SDS011;2295;51.050;14.608;2023-07-08T09:26:36;2.70;;;2.50;;
4565;SDS011;2295;51.050;14.608;2023-07-08T09:29:07;3.10;;;2.80;;
4565;SDS011;2295;51.050;14.608;2023-07-08T09:31:37;3.17;;;2.47;;
4565;SDS011;2295;51.050;14.608;2023-07-08T09:34:10;2.90;;;2.30;;
4565;SDS011;2295;51.050;14.608;2023-07-08T09:36:41;4.40;;;3.40;;
4565;SDS011;2295;51.050;14.608;2023-07-08T09:39:12;4.73;;;2.57;;
4565;SDS011;2295;51.050;14.608;2023-07-08T09:41:42;2.70;;;2.50;;
4565;SDS011;2295;51.050;14.608;2023-07-08T09:44:17;4.37;;;2.50;;
4565;SDS011;2295;51.050;14.608;2023-07-08T09:46:53;2.50;;;2.40;;
4565;SDS011;2295;51.050;14.608;2023-07-08T09:49:28;4.50;;;3.37;;
4565;SDS011;2295;51.050;14.608;2023-07-08T09:51:59;4.40;;;2.43;;
4565;SDS011;2295;51.050;14.608;2023-07-08T09:54:28;5.53;;;2.87;;
4565;SDS011;2295;51.050;14.608;2023-07-08T09:56:58;2.90;;;2.27;;
4565;SDS011;2295;51.050;14.608;2023-07-08T09:59:31;5.23;;;3.03;;
4565;SDS011;2295;51.050;14.608;2023-07-08T10:02:17;6.60;;;2.73;;
4565;SDS011;2295;51.050;14.608;2023-07-08T10:04:55;5.37;;;2.43;;
4565;SDS011;2295;51.050;14.608;2023-07-08T10:07:25;11.50;;;3.93;;
4565;SDS011;2295;51.050;14.608;2023-07-08T10:09:58;3.40;;;2.63;;
4565;SDS011;2295;51.050;14.608;2023-07-08T10:12:29;3.87;;;2.77;;
4565;SDS011;2295;51.050;14.608;2023-07-08T10:15:00;4.17;;;2.53;;
4565;SDS011;2295;51.050;14.608;2023-07-08T10:17:33;2.70;;;2.43;;
4565;SDS011;2295;51.050;14.608;2023-07-08T10:20:10;4.03;;;2.47;;
4565;SDS011;2295;51.050;14.608;2023-07-08T10:22:41;2.13;;;2.00;;
4565;SDS011;2295;51.050;14.608;2023-07-08T10:25:17;4.20;;;3.17;;
4565;SDS011;2295;51.050;14.608;2023-07-08T10:27:55;2.90;;;2.70;;
4565;SDS011;2295;51.050;14.608;2023-07-08T10:30:30;3.17;;;2.80;;
4565;SDS011;2295;51.050;14.608;2023-07-08T10:33:13;2.50;;;2.30;;
4565;SDS011;2295;51.050;14.608;2023-07-08T10:36:12;4.17;;;2.83;;
4565;SDS011;2295;51.050;14.608;2023-07-08T10:38:51;4.93;;;2.30;;
4565;SDS011;2295;51.050;14.608;2023-07-08T10:41:32;2.57;;;2.37;;
4565;SDS011;2295;51.050;14.608;2023-07-08T10:44:07;4.70;;;2.43;;
4565;SDS011;2295;51.050;14.608;2023-07-08T10:46:44;2.90;;;2.50;;
4565;SDS011;2295;51.050;14.608;2023-07-08T10:49:31;5.53;;;2.50;;
4565;SDS011;2295;51.050;14.608;2023-07-08T10:55:15;3.77;;;2.73;;
4565;SDS011;2295;51.050;14.608;2023-07-08T10:57:58;2.70;;;2.50;;
4565;SDS011;2295;51.050;14.608;2023-07-08T11:00:40;5.80;;;3.27;;
4565;SDS011;2295;51.050;14.608;2023-07-08T11:06:17;3.50;;;1.80;;
4565;SDS011;2295;51.050;14.608;2023-07-08T11:08:50;3.27;;;2.70;;
4565;SDS011;2295;51.050;14.608;2023-07-08T11:11:26;3.57;;;2.10;;
4565;SDS011;2295;51.050;14.608;2023-07-08T11:14:01;3.00;;;2.13;;
4565;SDS011;2295;51.050;14.608;2023-07-08T11:16:37;8.40;;;4.60;;
4565;SDS011;2295;51.050;14.608;2023-07-08T11:19:10;2.10;;;2.00;;
4565;SDS011;2295;51.050;14.608;2023-07-08T11:21:44;2.30;;;2.20;;
4565;SDS011;2295;51.050;14.608;2023-07-08T11:24:18;3.43;;;2.43;;
4565;SDS011;2295;51.050;14.608;2023-07-08T11:26:53;3.03;;;2.63;;
4565;SDS011;2295;51.050;14.608;2023-07-08T11:29:29;5.27;;;3.33;;
4565;SDS011;2295;51.050;14.608;2023-07-08T11:32:10;2.70;;;2.33;;
4565;SDS011;2295;51.050;14.608;2023-07-08T11:34:42;2.97;;;2.30;;
4565;SDS011;2295;51.050;14.608;2023-07-08T11:37:14;3.90;;;2.87;;
4565;SDS011;2295;51.050;14.608;2023-07-08T11:39:46;2.57;;;2.20;;
4565;SDS011;2295;51.050;14.608;2023-07-08T11:42:25;3.23;;;2.73;;
4565;SDS011;2295;51.050;14.608;2023-07-08T11:45:06;4.73;;;2.80;;
4565;SDS011;2295;51.050;14.608;2023-07-08T11:47:44;3.27;;;2.57;;
4565;SDS011;2295;51.050;14.608;2023-07-08T11:50:20;3.87;;;2.73;;
4565;SDS011;2295;51.050;14.608;2023-07-08T11:52:51;2.83;;;2.60;;
4565;SDS011;2295;51.050;14.608;2023-07-08T11:55:23;4.50;;;3.10;;
4565;SDS011;2295;51.050;14.608;2023-07-08T11:57:56;2.90;;;2.60;;
4565;SDS011;2295;51.050;14.608;2023-07-08T12:00:30;4.57;;;3.20;;
4565;SDS011;2295;51.050;14.608;2023-07-08T12:03:17;4.10;;;2.50;;
4565;SDS011;2295;51.050;14.608;2023-07-08T12:05:47;2.90;;;2.33;;
4565;SDS011;2295;51.050;14.608;2023-07-08T12:08:18;2.33;;;2.23;;
4565;SDS011;2295;51.050;14.608;2023-07-08T12:10:48;3.17;;;2.30;;
4565;SDS011;2295;51.050;14.608;2023-07-08T12:13:20;6.50;;;2.27;;
4565;SDS011;2295;51.050;14.608;2023-07-08T12:15:52;7.73;;;2.03;;
4565;SDS011;2295;51.050;14.608;2023-07-08T12:18:21;5.43;;;2.10;;
4565;SDS011;2295;51.050;14.608;2023-07-08T12:20:53;3.70;;;2.07;;
4565;SDS011;2295;51.050;14.608;2023-07-08T12:23:23;2.23;;;2.03;;
4565;SDS011;2295;51.050;14.608;2023-07-08T12:25:55;3.40;;;2.57;;
4565;SDS011;2295;51.050;14.608;2023-07-08T12:28:25;2.33;;;2.20;;
4565;SDS011;2295;51.050;14.608;2023-07-08T12:30:53;3.10;;;2.20;;
4565;SDS011;2295;51.050;14.608;2023-07-08T12:33:25;4.43;;;2.03;;
4565;SDS011;2295;51.050;14.608;2023-07-08T12:35:56;2.00;;;1.90;;
4565;SDS011;2295;51.050;14.608;2023-07-08T12:38:27;4.33;;;1.80;;
4565;SDS011;2295;51.050;14.608;2023-07-08T12:40:58;2.30;;;2.20;;
4565;SDS011;2295;51.050;14.608;2023-07-08T12:43:28;2.87;;;2.57;;
4565;SDS011;2295;51.050;14.608;2023-07-08T12:45:56;6.67;;;2.10;;
4565;SDS011;2295;51.050;14.608;2023-07-08T12:48:24;2.90;;;2.80;;
4565;SDS011;2295;51.050;14.608;2023-07-08T12:50:53;2.73;;;2.53;;
4565;SDS011;2295;51.050;14.608;2023-07-08T12:53:21;2.87;;;2.40;;
4565;SDS011;2295;51.050;14.608;2023-07-08T12:55:49;2.70;;;2.20;;
4565;SDS011;2295;51.050;14.608;2023-07-08T12:58:27;6.73;;;2.37;;
4565;SDS011;2295;51.050;14.608;2023-07-08T13:00:57;2.70;;;2.47;;
4565;SDS011;2295;51.050;14.608;2023-07-08T13:03:30;3.73;;;2.20;;
4565;SDS011;2295;51.050;14.608;2023-07-08T13:06:03;2.90;;;2.10;;
4565;SDS011;2295;51.050;14.608;2023-07-08T13:08:36;2.27;;;2.17;;
4565;SDS011;2295;51.050;14.608;2023-07-08T13:11:06;2.27;;;2.10;;
4565;SDS011;2295;51.050;14.608;2023-07-08T13:13:38;3.30;;;2.50;;
4565;SDS011;2295;51.050;14.608;2023-07-08T13:16:14;2.80;;;2.70;;
4565;SDS011;2295;51.050;14.608;2023-07-08T13:18:43;3.03;;;2.70;;
4565;SDS011;2295;51.050;14.608;2023-07-08T13:21:12;2.97;;;2.77;;
4565;SDS011;2295;51.050;14.608;2023-07-08T13:23:42;2.60;;;2.50;;
4565;SDS011;2295;51.050;14.608;2023-07-08T13:26:12;2.50;;;2.30;;
4565;SDS011;2295;51.050;14.608;2023-07-08T13:28:43;4.03;;;2.17;;
4565;SDS011;2295;51.050;14.608;2023-07-08T13:31:13;2.20;;;2.10;;
4565;SDS011;2295;51.050;14.608;2023-07-08T13:33:49;2.60;;;2.50;;
4565;SDS011;2295;51.050;14.608;2023-07-08T13:36:20;3.83;;;2.87;;
4565;SDS011;2295;51.050;14.608;2023-07-08T13:38:49;2.87;;;2.67;;
4565;SDS011;2295;51.050;14.608;2023-07-08T13:41:20;2.37;;;2.27;;
4565;SDS011;2295;51.050;14.608;2023-07-08T13:43:51;2.87;;;2.40;;
4565;SDS011;2295;51.050;14.608;2023-07-08T13:46:29;2.20;;;2.10;;
4565;SDS011;2295;51.050;14.608;2023-07-08T13:49:01;4.73;;;2.77;;
4565;SDS011;2295;51.050;14.608;2023-07-08T13:51:31;2.37;;;2.27;;
4565;SDS011;2295;51.050;14.608;2023-07-08T13:54:01;4.00;;;2.17;;
4565;SDS011;2295;51.050;14.608;2023-07-08T13:56:40;2.30;;;2.10;;
4565;SDS011;2295;51.050;14.608;2023-07-08T13:59:14;2.50;;;2.30;;
4565;SDS011;2295;51.050;14.608;2023-07-08T14:01:45;2.50;;;2.40;;
4565;SDS011;2295;51.050;14.608;2023-07-08T14:04:14;2.33;;;2.17;;
4565;SDS011;2295;51.050;14.608;2023-07-08T14:06:45;3.13;;;2.47;;
4565;SDS011;2295;51.050;14.608;2023-07-08T14:09:15;2.60;;;2.40;;
4565;SDS011;2295;51.050;14.608;2023-07-08T14:11:45;3.00;;;2.63;;
4565;SDS011;2295;51.050;14.608;2023-07-08T14:14:16;2.87;;;2.67;;
4565;SDS011;2295;51.050;14.608;2023-07-08T14:16:46;9.40;;;3.27;;
4565;SDS011;2295;51.050;14.608;2023-07-08T14:19:19;3.40;;;3.10;;
4565;SDS011;2295;51.050;14.608;2023-07-08T14:21:49;3.50;;;2.63;;
4565;SDS011;2295;51.050;14.608;2023-07-08T14:24:21;3.67;;;2.90;;
4565;SDS011;2295;51.050;14.608;2023-07-08T14:26:50;5.33;;;3.00;;
4565;SDS011;2295;51.050;14.608;2023-07-08T14:29:21;3.40;;;3.10;;
4565;SDS011;2295;51.050;14.608;2023-07-08T14:31:49;3.10;;;2.90;;
4565;SDS011;2295;51.050;14.608;2023-07-08T14:34:20;3.10;;;2.80;;
4565;SDS011;2295;51.050;14.608;2023-07-08T14:36:52;2.90;;;2.70;;
4565;SDS011;2295;51.050;14.608;2023-07-08T14:39:27;3.43;;;2.97;;
4565;SDS011;2295;51.050;14.608;2023-07-08T14:41:55;7.40;;;3.37;;
4565;SDS011;2295;51.050;14.608;2023-07-08T14:44:26;3.27;;;2.97;;
4565;SDS011;2295;51.050;14.608;2023-07-08T14:47:01;7.83;;;3.60;;
4565;SDS011;2295;51.050;14.608;2023-07-08T14:49:29;4.23;;;2.83;;
4565;SDS011;2295;51.050;14.608;2023-07-08T14:51:58;3.10;;;2.90;;
4565;SDS011;2295;51.050;14.608;2023-07-08T14:54:26;3.23;;;3.03;;
4565;SDS011;2295;51.050;14.608;2023-07-08T14:56:54;3.63;;;3.30;;
4565;SDS011;2295;51.050;14.608;2023-07-08T14:59:27;3.40;;;2.87;;
4565;SDS011;2295;51.050;14.608;2023-07-08T15:01:58;3.93;;;2.90;;
4565;SDS011;2295;51.050;14.608;2023-07-08T15:04:28;3.73;;;3.07;;
4565;SDS011;2295;51.050;14.608;2023-07-08T15:06:57;5.43;;;3.30;;
4565;SDS011;2295;51.050;14.608;2023-07-08T15:09:27;3.40;;;3.10;;
4565;SDS011;2295;51.050;14.608;2023-07-08T15:11:55;3.03;;;2.70;;
4565;SDS011;2295;51.050;14.608;2023-07-08T15:14:24;4.23;;;3.23;;
4565;SDS011;2295;51.050;14.608;2023-07-08T15:16:54;6.30;;;3.53;;
4565;SDS011;2295;51.050;14.608;2023-07-08T15:19:22;2.73;;;2.53;;
4565;SDS011;2295;51.050;14.608;2023-07-08T15:21:52;3.30;;;2.97;;
4565;SDS011;2295;51.050;14.608;2023-07-08T15:24:20;5.27;;;2.93;;
4565;SDS011;2295;51.050;14.608;2023-07-08T15:26:51;4.63;;;2.73;;
4565;SDS011;2295;51.050;14.608;2023-07-08T15:29:20;3.87;;;2.57;;